sensor_id;sensor_type;location;lat;lon;timestamp;P1;durP1;ratioP1;P2;durP2;ratioP2
71836;SDS011;59686;51.716;7.016;2023-03-23T00:01:14;6.87;;;3.70;;
71836;SDS011;59686;51.716;7.016;2023-03-23T00:03:44;5.30;;;3.97;;
71836;SDS011;59686;51.716;7.016;2023-03-23T00:06:12;5.00;;;3.53;;
71836;SDS011;59686;51.716;7.016;2023-03-23T00:08:42;5.13;;;3.60;;
71836;SDS011;59686;51.716;7.016;2023-03-23T00:11:10;3.85;;;3.00;;
71836;SDS011;59686;51.716;7.016;2023-03-23T00:13:42;5.63;;;3.53;;
71836;SDS011;59686;51.716;7.016;2023-03-23T00:16:09;4.18;;;3.25;;
71836;SDS011;59686;51.716;7.016;2023-03-23T00:18:45;7.22;;;3.58;;
71836;SDS011;59686;51.716;7.016;2023-03-23T00:21:12;5.90;;;3.47;;
71836;SDS011;59686;51.716;7.016;2023-03-23T00:23:38;5.28;;;3.50;;
71836;SDS011;59686;51.716;7.016;2023-03-23T00:26:05;4.68;;;3.30;;
71836;SDS011;59686;51.716;7.016;2023-03-23T00:28:34;5.90;;;3.35;;
71836;SDS011;59686;51.716;7.016;2023-03-23T00:31:01;4.88;;;3.20;;
71836;SDS011;59686;51.716;7.016;2023-03-23T00:33:29;6.25;;;3.40;;
71836;SDS011;59686;51.716;7.016;2023-03-23T00:35:58;3.88;;;3.00;;
71836;SDS011;59686;51.716;7.016;2023-03-23T00:38:25;6.25;;;3.30;;
71836;SDS011;59686;51.716;7.016;2023-03-23T00:40:50;4.07;;;3.17;;
71836;SDS011;59686;51.716;7.016;2023-03-23T00:43:17;4.38;;;3.10;;
71836;SDS011;59686;51.716;7.016;2023-03-23T00:45:44;3.65;;;3.05;;
71836;SDS011;59686;51.716;7.016;2023-03-23T00:48:21;4.70;;;3.20;;
71836;SDS011;59686;51.716;7.016;2023-03-23T00:50:48;4.40;;;3.00;;
71836;SDS011;59686;51.716;7.016;2023-03-23T00:53:16;4.80;;;3.00;;
71836;SDS011;59686;51.716;7.016;2023-03-23T00:55:43;4.13;;;2.97;;
71836;SDS011;59686;51.716;7.016;2023-03-23T00:58:10;4.03;;;3.10;;
71836;SDS011;59686;51.716;7.016;2023-03-23T01:00:37;4.80;;;3.00;;
71836;SDS011;59686;51.716;7.016;2023-03-23T01:03:03;4.13;;;2.67;;
71836;SDS011;59686;51.716;7.016;2023-03-23T01:05:34;6.40;;;3.03;;
71836;SDS011;59686;51.716;7.016;2023-03-23T01:08:01;3.65;;;2.92;;
71836;SDS011;59686;51.716;7.016;2023-03-23T01:10:27;4.68;;;2.95;;
71836;SDS011;59686;51.716;7.016;2023-03-23T01:12:53;3.53;;;2.90;;
71836;SDS011;59686;51.716;7.016;2023-03-23T01:15:20;4.22;;;2.80;;
71836;SDS011;59686;51.716;7.016;2023-03-23T01:17:46;6.07;;;3.20;;
71836;SDS011;59686;51.716;7.016;2023-03-23T01:20:13;4.97;;;2.87;;
71836;SDS011;59686;51.716;7.016;2023-03-23T01:22:40;4.23;;;2.90;;
71836;SDS011;59686;51.716;7.016;2023-03-23T01:25:07;5.15;;;3.40;;
71836;SDS011;59686;51.716;7.016;2023-03-23T01:27:35;4.10;;;2.88;;
71836;SDS011;59686;51.716;7.016;2023-03-23T01:30:01;3.90;;;3.00;;
71836;SDS011;59686;51.716;7.016;2023-03-23T01:32:34;3.53;;;2.60;;
71836;SDS011;59686;51.716;7.016;2023-03-23T01:35:00;3.97;;;2.75;;
71836;SDS011;59686;51.716;7.016;2023-03-23T01:37:26;5.75;;;2.85;;
71836;SDS011;59686;51.716;7.016;2023-03-23T01:39:53;5.18;;;2.40;;
71836;SDS011;59686;51.716;7.016;2023-03-23T01:42:29;3.97;;;2.33;;
71836;SDS011;59686;51.716;7.016;2023-03-23T01:47:44;4.45;;;2.47;;
71836;SDS011;59686;51.716;7.016;2023-03-23T01:50:16;4.13;;;2.70;;
71836;SDS011;59686;51.716;7.016;2023-03-23T01:52:43;4.10;;;2.30;;
71836;SDS011;59686;51.716;7.016;2023-03-23T01:55:08;3.97;;;2.70;;
71836;SDS011;59686;51.716;7.016;2023-03-23T01:57:34;4.60;;;2.50;;
71836;SDS011;59686;51.716;7.016;2023-03-23T02:00:03;2.80;;;2.38;;
71836;SDS011;59686;51.716;7.016;2023-03-23T02:02:35;3.33;;;2.50;;
71836;SDS011;59686;51.716;7.016;2023-03-23T02:05:04;2.50;;;2.30;;
71836;SDS011;59686;51.716;7.016;2023-03-23T02:07:36;4.70;;;2.55;;
71836;SDS011;59686;51.716;7.016;2023-03-23T02:12:35;3.50;;;2.53;;
71836;SDS011;59686;51.716;7.016;2023-03-23T02:15:01;3.90;;;2.50;;
71836;SDS011;59686;51.716;7.016;2023-03-23T02:42:04;3.15;;;2.10;;
71836;SDS011;59686;51.716;7.016;2023-03-23T02:44:32;3.70;;;2.38;;
71836;SDS011;59686;51.716;7.016;2023-03-23T02:47:01;4.75;;;2.70;;
71836;SDS011;59686;51.716;7.016;2023-03-23T02:49:31;4.40;;;2.30;;
71836;SDS011;59686;51.716;7.016;2023-03-23T02:52:01;4.63;;;2.78;;
71836;SDS011;59686;51.716;7.016;2023-03-23T02:54:34;4.40;;;2.50;;
71836;SDS011;59686;51.716;7.016;2023-03-23T02:57:02;3.95;;;2.38;;
71836;SDS011;59686;51.716;7.016;2023-03-23T02:59:32;3.63;;;2.40;;
71836;SDS011;59686;51.716;7.016;2023-03-23T03:01:59;2.90;;;2.40;;
71836;SDS011;59686;51.716;7.016;2023-03-23T03:04:29;3.70;;;2.30;;
71836;SDS011;59686;51.716;7.016;2023-03-23T03:07:06;3.63;;;2.45;;
71836;SDS011;59686;51.716;7.016;2023-03-23T03:09:54;2.67;;;2.15;;
71836;SDS011;59686;51.716;7.016;2023-03-23T03:17:38;3.58;;;2.10;;
71836;SDS011;59686;51.716;7.016;2023-03-23T03:20:08;3.60;;;2.70;;
71836;SDS011;59686;51.716;7.016;2023-03-23T03:22:36;4.40;;;2.38;;
71836;SDS011;59686;51.716;7.016;2023-03-23T03:25:13;4.22;;;2.40;;
71836;SDS011;59686;51.716;7.016;2023-03-23T03:27:41;2.67;;;2.30;;
71836;SDS011;59686;51.716;7.016;2023-03-23T03:30:11;3.42;;;2.40;;
71836;SDS011;59686;51.716;7.016;2023-03-23T03:32:47;2.70;;;2.22;;
71836;SDS011;59686;51.716;7.016;2023-03-23T03:35:18;2.93;;;2.30;;
71836;SDS011;59686;51.716;7.016;2023-03-23T03:37:46;3.80;;;2.33;;
71836;SDS011;59686;51.716;7.016;2023-03-23T03:40:13;4.45;;;2.60;;
71836;SDS011;59686;51.716;7.016;2023-03-23T03:42:41;2.83;;;2.35;;
71836;SDS011;59686;51.716;7.016;2023-03-23T03:45:09;4.17;;;2.70;;
71836;SDS011;59686;51.716;7.016;2023-03-23T03:47:37;2.60;;;2.10;;
71836;SDS011;59686;51.716;7.016;2023-03-23T03:50:03;4.10;;;2.65;;
71836;SDS011;59686;51.716;7.016;2023-03-23T03:52:29;2.97;;;2.17;;
71836;SDS011;59686;51.716;7.016;2023-03-23T03:54:55;3.45;;;2.28;;
71836;SDS011;59686;51.716;7.016;2023-03-23T03:57:23;2.83;;;2.40;;
71836;SDS011;59686;51.716;7.016;2023-03-23T03:59:49;3.35;;;2.30;;
71836;SDS011;59686;51.716;7.016;2023-03-23T04:02:15;2.88;;;2.50;;
71836;SDS011;59686;51.716;7.016;2023-03-23T04:04:48;2.47;;;2.17;;
71836;SDS011;59686;51.716;7.016;2023-03-23T04:07:15;2.85;;;2.45;;
71836;SDS011;59686;51.716;7.016;2023-03-23T04:09:52;2.75;;;2.40;;
71836;SDS011;59686;51.716;7.016;2023-03-23T04:12:18;2.27;;;2.07;;
71836;SDS011;59686;51.716;7.016;2023-03-23T04:14:43;3.67;;;2.45;;
71836;SDS011;59686;51.716;7.016;2023-03-23T04:17:09;3.70;;;2.20;;
71836;SDS011;59686;51.716;7.016;2023-03-23T04:19:36;2.93;;;2.20;;
71836;SDS011;59686;51.716;7.016;2023-03-23T04:22:03;2.60;;;2.17;;
71836;SDS011;59686;51.716;7.016;2023-03-23T04:24:29;2.95;;;2.20;;
71836;SDS011;59686;51.716;7.016;2023-03-23T04:26:58;3.25;;;2.22;;
71836;SDS011;59686;51.716;7.016;2023-03-23T04:29:24;3.75;;;2.33;;
71836;SDS011;59686;51.716;7.016;2023-03-23T04:31:50;3.88;;;2.10;;
71836;SDS011;59686;51.716;7.016;2023-03-23T04:34:17;2.83;;;2.38;;
71836;SDS011;59686;51.716;7.016;2023-03-23T04:36:44;3.47;;;2.17;;
71836;SDS011;59686;51.716;7.016;2023-03-23T04:39:13;2.47;;;2.28;;
71836;SDS011;59686;51.716;7.016;2023-03-23T04:41:40;3.00;;;2.40;;
71836;SDS011;59686;51.716;7.016;2023-03-23T04:44:06;4.20;;;2.43;;
71836;SDS011;59686;51.716;7.016;2023-03-23T04:46:32;3.30;;;2.40;;
71836;SDS011;59686;51.716;7.016;2023-03-23T04:48:58;4.57;;;2.50;;
71836;SDS011;59686;51.716;7.016;2023-03-23T04:51:29;3.38;;;2.15;;
71836;SDS011;59686;51.716;7.016;2023-03-23T04:53:56;3.10;;;2.13;;
71836;SDS011;59686;51.716;7.016;2023-03-23T04:56:22;3.13;;;2.20;;
71836;SDS011;59686;51.716;7.016;2023-03-23T04:58:47;2.97;;;2.40;;
71836;SDS011;59686;51.716;7.016;2023-03-23T05:01:13;3.90;;;2.30;;
71836;SDS011;59686;51.716;7.016;2023-03-23T05:03:39;2.85;;;2.00;;
71836;SDS011;59686;51.716;7.016;2023-03-23T05:06:05;4.55;;;2.50;;
71836;SDS011;59686;51.716;7.016;2023-03-23T05:08:32;5.05;;;2.58;;
71836;SDS011;59686;51.716;7.016;2023-03-23T05:10:59;2.77;;;2.30;;
71836;SDS011;59686;51.716;7.016;2023-03-23T05:13:26;3.27;;;2.43;;
71836;SDS011;59686;51.716;7.016;2023-03-23T05:15:54;3.70;;;2.60;;
71836;SDS011;59686;51.716;7.016;2023-03-23T05:18:20;3.60;;;2.33;;
71836;SDS011;59686;51.716;7.016;2023-03-23T05:20:46;3.00;;;2.40;;
71836;SDS011;59686;51.716;7.016;2023-03-23T05:23:13;3.58;;;2.20;;
71836;SDS011;59686;51.716;7.016;2023-03-23T05:25:40;2.47;;;2.20;;
71836;SDS011;59686;51.716;7.016;2023-03-23T05:28:09;3.60;;;2.50;;
71836;SDS011;59686;51.716;7.016;2023-03-23T05:30:55;4.20;;;2.40;;
71836;SDS011;59686;51.716;7.016;2023-03-23T05:33:21;3.73;;;2.70;;
71836;SDS011;59686;51.716;7.016;2023-03-23T05:35:47;3.73;;;2.40;;
71836;SDS011;59686;51.716;7.016;2023-03-23T05:38:13;3.90;;;2.50;;
71836;SDS011;59686;51.716;7.016;2023-03-23T05:40:40;4.00;;;2.55;;
71836;SDS011;59686;51.716;7.016;2023-03-23T05:43:07;3.87;;;2.50;;
71836;SDS011;59686;51.716;7.016;2023-03-23T05:45:33;4.50;;;2.60;;
71836;SDS011;59686;51.716;7.016;2023-03-23T05:48:00;4.93;;;3.00;;
71836;SDS011;59686;51.716;7.016;2023-03-23T05:50:25;4.38;;;2.67;;
71836;SDS011;59686;51.716;7.016;2023-03-23T05:52:52;4.33;;;2.77;;
71836;SDS011;59686;51.716;7.016;2023-03-23T05:55:19;4.03;;;2.72;;
71836;SDS011;59686;51.716;7.016;2023-03-23T05:57:45;3.33;;;2.65;;
71836;SDS011;59686;51.716;7.016;2023-03-23T06:00:11;3.03;;;2.43;;
71836;SDS011;59686;51.716;7.016;2023-03-23T06:02:48;3.10;;;2.60;;
71836;SDS011;59686;51.716;7.016;2023-03-23T06:05:16;4.70;;;2.63;;
71836;SDS011;59686;51.716;7.016;2023-03-23T06:07:42;3.30;;;2.90;;
71836;SDS011;59686;51.716;7.016;2023-03-23T06:10:09;3.67;;;2.58;;
71836;SDS011;59686;51.716;7.016;2023-03-23T06:12:36;3.58;;;2.45;;
71836;SDS011;59686;51.716;7.016;2023-03-23T06:15:02;3.03;;;2.40;;
71836;SDS011;59686;51.716;7.016;2023-03-23T06:17:29;5.00;;;3.00;;
71836;SDS011;59686;51.716;7.016;2023-03-23T06:19:54;5.28;;;2.58;;
71836;SDS011;59686;51.716;7.016;2023-03-23T06:22:20;8.15;;;2.95;;
71836;SDS011;59686;51.716;7.016;2023-03-23T06:24:46;3.45;;;2.60;;
71836;SDS011;59686;51.716;7.016;2023-03-23T06:27:12;4.65;;;2.70;;
71836;SDS011;59686;51.716;7.016;2023-03-23T06:29:38;4.63;;;2.92;;
71836;SDS011;59686;51.716;7.016;2023-03-23T06:32:04;4.57;;;2.78;;
71836;SDS011;59686;51.716;7.016;2023-03-23T06:34:31;4.78;;;2.30;;
71836;SDS011;59686;51.716;7.016;2023-03-23T06:36:57;5.38;;;2.50;;
71836;SDS011;59686;51.716;7.016;2023-03-23T06:39:23;3.75;;;2.83;;
71836;SDS011;59686;51.716;7.016;2023-03-23T06:41:49;5.07;;;2.78;;
71836;SDS011;59686;51.716;7.016;2023-03-23T06:44:16;4.00;;;2.40;;
71836;SDS011;59686;51.716;7.016;2023-03-23T06:46:42;3.50;;;2.40;;
71836;SDS011;59686;51.716;7.016;2023-03-23T06:49:08;5.60;;;2.65;;
71836;SDS011;59686;51.716;7.016;2023-03-23T06:51:34;5.97;;;2.70;;
71836;SDS011;59686;51.716;7.016;2023-03-23T06:54:01;5.05;;;2.72;;
71836;SDS011;59686;51.716;7.016;2023-03-23T06:56:28;4.28;;;2.42;;
71836;SDS011;59686;51.716;7.016;2023-03-23T06:58:55;4.47;;;2.70;;
71836;SDS011;59686;51.716;7.016;2023-03-23T07:01:22;4.18;;;2.60;;
71836;SDS011;59686;51.716;7.016;2023-03-23T07:03:48;4.95;;;2.65;;
71836;SDS011;59686;51.716;7.016;2023-03-23T07:06:14;3.40;;;2.67;;
71836;SDS011;59686;51.716;7.016;2023-03-23T07:08:41;4.40;;;2.63;;
71836;SDS011;59686;51.716;7.016;2023-03-23T07:11:06;3.28;;;2.67;;
71836;SDS011;59686;51.716;7.016;2023-03-23T07:13:33;5.93;;;2.47;;
71836;SDS011;59686;51.716;7.016;2023-03-23T07:15:59;5.05;;;2.63;;
71836;SDS011;59686;51.716;7.016;2023-03-23T07:18:25;7.05;;;2.58;;
71836;SDS011;59686;51.716;7.016;2023-03-23T07:20:52;5.47;;;2.85;;
71836;SDS011;59686;51.716;7.016;2023-03-23T07:23:19;5.25;;;2.85;;
71836;SDS011;59686;51.716;7.016;2023-03-23T07:25:44;4.22;;;2.47;;
71836;SDS011;59686;51.716;7.016;2023-03-23T07:28:12;6.85;;;3.10;;
71836;SDS011;59686;51.716;7.016;2023-03-23T07:30:38;4.13;;;2.85;;
71836;SDS011;59686;51.716;7.016;2023-03-23T07:33:05;4.70;;;2.65;;
71836;SDS011;59686;51.716;7.016;2023-03-23T07:35:31;5.03;;;2.80;;
71836;SDS011;59686;51.716;7.016;2023-03-23T07:37:57;6.20;;;2.75;;
71836;SDS011;59686;51.716;7.016;2023-03-23T07:42:56;4.05;;;2.50;;
71836;SDS011;59686;51.716;7.016;2023-03-23T07:45:22;3.67;;;2.37;;
71836;SDS011;59686;51.716;7.016;2023-03-23T07:47:48;4.07;;;2.67;;
71836;SDS011;59686;51.716;7.016;2023-03-23T07:50:15;4.68;;;2.40;;
71836;SDS011;59686;51.716;7.016;2023-03-23T07:52:41;4.50;;;2.72;;
71836;SDS011;59686;51.716;7.016;2023-03-23T07:55:08;4.88;;;2.38;;
71836;SDS011;59686;51.716;7.016;2023-03-23T07:57:43;6.40;;;3.08;;
71836;SDS011;59686;51.716;7.016;2023-03-23T08:00:10;6.18;;;2.90;;
71836;SDS011;59686;51.716;7.016;2023-03-23T08:02:47;9.27;;;2.72;;
71836;SDS011;59686;51.716;7.016;2023-03-23T08:05:15;5.27;;;2.33;;
71836;SDS011;59686;51.716;7.016;2023-03-23T08:07:41;4.60;;;2.70;;
71836;SDS011;59686;51.716;7.016;2023-03-23T08:10:08;5.82;;;2.63;;
71836;SDS011;59686;51.716;7.016;2023-03-23T08:12:35;4.88;;;2.63;;
71836;SDS011;59686;51.716;7.016;2023-03-23T08:15:02;4.35;;;2.20;;
71836;SDS011;59686;51.716;7.016;2023-03-23T08:17:29;3.85;;;2.45;;
71836;SDS011;59686;51.716;7.016;2023-03-23T08:19:54;8.03;;;2.90;;
71836;SDS011;59686;51.716;7.016;2023-03-23T08:22:21;3.67;;;2.55;;
71836;SDS011;59686;51.716;7.016;2023-03-23T08:24:47;4.75;;;2.47;;
71836;SDS011;59686;51.716;7.016;2023-03-23T08:27:13;5.90;;;2.55;;
71836;SDS011;59686;51.716;7.016;2023-03-23T08:29:39;5.35;;;2.22;;
71836;SDS011;59686;51.716;7.016;2023-03-23T08:32:05;5.40;;;2.25;;
71836;SDS011;59686;51.716;7.016;2023-03-23T08:34:31;5.18;;;2.28;;
71836;SDS011;59686;51.716;7.016;2023-03-23T08:36:57;6.80;;;2.58;;
71836;SDS011;59686;51.716;7.016;2023-03-23T08:39:26;3.95;;;2.47;;
71836;SDS011;59686;51.716;7.016;2023-03-23T08:41:55;4.13;;;2.60;;
71836;SDS011;59686;51.716;7.016;2023-03-23T08:44:21;6.45;;;2.28;;
71836;SDS011;59686;51.716;7.016;2023-03-23T08:46:46;4.00;;;2.55;;
71836;SDS011;59686;51.716;7.016;2023-03-23T08:49:13;4.78;;;2.50;;
71836;SDS011;59686;51.716;7.016;2023-03-23T08:51:39;4.57;;;2.17;;
71836;SDS011;59686;51.716;7.016;2023-03-23T08:54:06;6.22;;;2.40;;
71836;SDS011;59686;51.716;7.016;2023-03-23T08:56:32;3.50;;;2.13;;
71836;SDS011;59686;51.716;7.016;2023-03-23T08:58:58;4.68;;;2.55;;
71836;SDS011;59686;51.716;7.016;2023-03-23T09:01:27;4.00;;;2.42;;
71836;SDS011;59686;51.716;7.016;2023-03-23T09:03:52;5.22;;;2.55;;
71836;SDS011;59686;51.716;7.016;2023-03-23T09:06:19;4.95;;;2.53;;
71836;SDS011;59686;51.716;7.016;2023-03-23T09:08:44;5.53;;;2.33;;
71836;SDS011;59686;51.716;7.016;2023-03-23T09:11:10;2.90;;;1.95;;
71836;SDS011;59686;51.716;7.016;2023-03-23T09:13:37;5.50;;;2.10;;
71836;SDS011;59686;51.716;7.016;2023-03-23T09:16:04;4.60;;;2.17;;
71836;SDS011;59686;51.716;7.016;2023-03-23T09:18:30;4.65;;;2.17;;
71836;SDS011;59686;51.716;7.016;2023-03-23T09:21:00;4.47;;;2.20;;
71836;SDS011;59686;51.716;7.016;2023-03-23T09:23:26;5.03;;;2.30;;
71836;SDS011;59686;51.716;7.016;2023-03-23T09:25:52;4.75;;;2.20;;
71836;SDS011;59686;51.716;7.016;2023-03-23T09:28:18;5.18;;;2.40;;
71836;SDS011;59686;51.716;7.016;2023-03-23T09:30:45;4.60;;;2.42;;
71836;SDS011;59686;51.716;7.016;2023-03-23T09:33:12;8.30;;;2.13;;
71836;SDS011;59686;51.716;7.016;2023-03-23T09:35:38;5.70;;;2.33;;
71836;SDS011;59686;51.716;7.016;2023-03-23T09:38:07;7.00;;;2.10;;
71836;SDS011;59686;51.716;7.016;2023-03-23T09:40:57;4.07;;;1.70;;
71836;SDS011;59686;51.716;7.016;2023-03-23T09:43:32;3.63;;;1.77;;
71836;SDS011;59686;51.716;7.016;2023-03-23T09:46:16;3.93;;;1.60;;
71836;SDS011;59686;51.716;7.016;2023-03-23T09:48:58;2.50;;;1.63;;
71836;SDS011;59686;51.716;7.016;2023-03-23T09:54:04;3.28;;;1.42;;
71836;SDS011;59686;51.716;7.016;2023-03-23T09:56:54;4.03;;;1.33;;
71836;SDS011;59686;51.716;7.016;2023-03-23T09:59:24;2.93;;;1.30;;
71836;SDS011;59686;51.716;7.016;2023-03-23T10:04:44;2.33;;;1.20;;
71836;SDS011;59686;51.716;7.016;2023-03-23T10:07:13;4.38;;;1.70;;
71836;SDS011;59686;51.716;7.016;2023-03-23T10:09:42;3.05;;;1.40;;
71836;SDS011;59686;51.716;7.016;2023-03-23T10:12:33;3.10;;;1.40;;
71836;SDS011;59686;51.716;7.016;2023-03-23T10:17:50;3.03;;;1.55;;
71836;SDS011;59686;51.716;7.016;2023-03-23T10:22:57;2.25;;;1.48;;
71836;SDS011;59686;51.716;7.016;2023-03-23T10:25:46;3.30;;;1.25;;
71836;SDS011;59686;51.716;7.016;2023-03-23T10:28:20;3.38;;;1.20;;
71836;SDS011;59686;51.716;7.016;2023-03-23T10:30:50;2.40;;;1.25;;
71836;SDS011;59686;51.716;7.016;2023-03-23T10:33:22;2.78;;;1.20;;
71836;SDS011;59686;51.716;7.016;2023-03-23T10:35:55;4.30;;;1.73;;
71836;SDS011;59686;51.716;7.016;2023-03-23T10:41:34;2.67;;;1.25;;
71836;SDS011;59686;51.716;7.016;2023-03-23T10:44:00;2.50;;;1.20;;
71836;SDS011;59686;51.716;7.016;2023-03-23T10:52:25;3.88;;;1.15;;
71836;SDS011;59686;51.716;7.016;2023-03-23T10:55:10;2.63;;;1.10;;
71836;SDS011;59686;51.716;7.016;2023-03-23T10:57:42;2.00;;;1.25;;
71836;SDS011;59686;51.716;7.016;2023-03-23T11:02:57;2.40;;;1.10;;
71836;SDS011;59686;51.716;7.016;2023-03-23T11:05:31;1.92;;;1.13;;
71836;SDS011;59686;51.716;7.016;2023-03-23T11:08:02;2.53;;;1.20;;
71836;SDS011;59686;51.716;7.016;2023-03-23T11:10:39;2.93;;;1.20;;
71836;SDS011;59686;51.716;7.016;2023-03-23T11:13:14;3.35;;;1.20;;
71836;SDS011;59686;51.716;7.016;2023-03-23T11:15:42;2.22;;;1.30;;
71836;SDS011;59686;51.716;7.016;2023-03-23T11:20:46;2.27;;;1.30;;
71836;SDS011;59686;51.716;7.016;2023-03-23T11:23:18;2.35;;;1.08;;
71836;SDS011;59686;51.716;7.016;2023-03-23T11:26:00;2.70;;;1.23;;
71836;SDS011;59686;51.716;7.016;2023-03-23T11:28:36;3.37;;;1.17;;
71836;SDS011;59686;51.716;7.016;2023-03-23T11:31:07;2.40;;;1.20;;
71836;SDS011;59686;51.716;7.016;2023-03-23T11:36:31;2.55;;;1.20;;
71836;SDS011;59686;51.716;7.016;2023-03-23T11:38:59;2.42;;;1.30;;
71836;SDS011;59686;51.716;7.016;2023-03-23T11:41:31;1.60;;;1.13;;
71836;SDS011;59686;51.716;7.016;2023-03-23T11:44:01;2.42;;;1.33;;
71836;SDS011;59686;51.716;7.016;2023-03-23T11:46:47;1.50;;;0.90;;
71836;SDS011;59686;51.716;7.016;2023-03-23T11:52:17;2.90;;;1.30;;
71836;SDS011;59686;51.716;7.016;2023-03-23T11:58:02;1.73;;;1.10;;
71836;SDS011;59686;51.716;7.016;2023-03-23T12:00:40;2.83;;;1.30;;
71836;SDS011;59686;51.716;7.016;2023-03-23T12:06:35;3.72;;;1.42;;
71836;SDS011;59686;51.716;7.016;2023-03-23T12:31:25;3.33;;;1.33;;
71836;SDS011;59686;51.716;7.016;2023-03-23T12:39:59;2.85;;;1.20;;
71836;SDS011;59686;51.716;7.016;2023-03-23T12:48:28;2.05;;;1.40;;
71836;SDS011;59686;51.716;7.016;2023-03-23T12:51:10;4.10;;;1.17;;
71836;SDS011;59686;51.716;7.016;2023-03-23T12:57:00;2.33;;;1.30;;
71836;SDS011;59686;51.716;7.016;2023-03-23T12:59:36;2.28;;;1.30;;
71836;SDS011;59686;51.716;7.016;2023-03-23T13:02:17;2.80;;;1.23;;
71836;SDS011;59686;51.716;7.016;2023-03-23T13:05:27;2.50;;;1.48;;
71836;SDS011;59686;51.716;7.016;2023-03-23T13:08:29;2.95;;;1.20;;
71836;SDS011;59686;51.716;7.016;2023-03-23T13:11:00;2.70;;;1.55;;
71836;SDS011;59686;51.716;7.016;2023-03-23T13:24:23;2.75;;;1.30;;
71836;SDS011;59686;51.716;7.016;2023-03-23T13:26:53;2.58;;;1.42;;
71836;SDS011;59686;51.716;7.016;2023-03-23T13:29:23;2.03;;;1.40;;
71836;SDS011;59686;51.716;7.016;2023-03-23T13:31:50;1.83;;;1.40;;
71836;SDS011;59686;51.716;7.016;2023-03-23T13:34:18;3.00;;;1.70;;
71836;SDS011;59686;51.716;7.016;2023-03-23T13:37:04;2.78;;;1.60;;
71836;SDS011;59686;51.716;7.016;2023-03-23T13:39:56;2.45;;;1.42;;
71836;SDS011;59686;51.716;7.016;2023-03-23T13:42:28;3.83;;;1.55;;
71836;SDS011;59686;51.716;7.016;2023-03-23T13:45:17;3.33;;;1.50;;
71836;SDS011;59686;51.716;7.016;2023-03-23T13:48:16;5.70;;;1.67;;
71836;SDS011;59686;51.716;7.016;2023-03-23T13:50:49;3.08;;;1.70;;
71836;SDS011;59686;51.716;7.016;2023-03-23T13:58:52;3.83;;;1.75;;
71836;SDS011;59686;51.716;7.016;2023-03-23T14:01:38;2.00;;;1.60;;
71836;SDS011;59686;51.716;7.016;2023-03-23T14:04:11;2.38;;;1.65;;
71836;SDS011;59686;51.716;7.016;2023-03-23T14:06:40;3.28;;;1.70;;
71836;SDS011;59686;51.716;7.016;2023-03-23T14:10:08;5.32;;;2.10;;
71836;SDS011;59686;51.716;7.016;2023-03-23T14:12:05;2.75;;;1.50;;
71836;SDS011;59686;51.716;7.016;2023-03-23T14:17:14;4.28;;;1.65;;
71836;SDS011;59686;51.716;7.016;2023-03-23T14:19:44;2.75;;;1.90;;
71836;SDS011;59686;51.716;7.016;2023-03-23T14:22:27;3.40;;;1.77;;
71836;SDS011;59686;51.716;7.016;2023-03-23T14:25:13;4.40;;;2.08;;
71836;SDS011;59686;51.716;7.016;2023-03-23T14:27:41;3.92;;;1.90;;
71836;SDS011;59686;51.716;7.016;2023-03-23T14:30:34;5.15;;;1.80;;
71836;SDS011;59686;51.716;7.016;2023-03-23T14:33:05;4.50;;;1.63;;
71836;SDS011;59686;51.716;7.016;2023-03-23T14:35:34;3.75;;;1.98;;
71836;SDS011;59686;51.716;7.016;2023-03-23T14:38:03;4.40;;;1.98;;
71836;SDS011;59686;51.716;7.016;2023-03-23T14:40:29;3.30;;;1.95;;
71836;SDS011;59686;51.716;7.016;2023-03-23T14:42:56;3.47;;;1.80;;
71836;SDS011;59686;51.716;7.016;2023-03-23T14:45:23;5.07;;;2.10;;
71836;SDS011;59686;51.716;7.016;2023-03-23T14:48:23;4.70;;;2.08;;
71836;SDS011;59686;51.716;7.016;2023-03-23T14:50:58;6.60;;;2.05;;
71836;SDS011;59686;51.716;7.016;2023-03-23T14:53:35;6.38;;;2.42;;
71836;SDS011;59686;51.716;7.016;2023-03-23T14:56:12;3.95;;;2.10;;
71836;SDS011;59686;51.716;7.016;2023-03-23T14:58:43;5.70;;;2.17;;
71836;SDS011;59686;51.716;7.016;2023-03-23T15:01:18;4.80;;;2.10;;
71836;SDS011;59686;51.716;7.016;2023-03-23T15:04:07;3.03;;;1.83;;
71836;SDS011;59686;51.716;7.016;2023-03-23T15:06:36;5.13;;;2.00;;
71836;SDS011;59686;51.716;7.016;2023-03-23T15:09:06;5.20;;;2.40;;
71836;SDS011;59686;51.716;7.016;2023-03-23T15:11:38;5.60;;;2.42;;
71836;SDS011;59686;51.716;7.016;2023-03-23T15:14:10;3.67;;;2.03;;
71836;SDS011;59686;51.716;7.016;2023-03-23T15:16:38;5.38;;;2.38;;
71836;SDS011;59686;51.716;7.016;2023-03-23T15:19:20;4.80;;;2.60;;
71836;SDS011;59686;51.716;7.016;2023-03-23T15:21:57;7.25;;;2.83;;
71836;SDS011;59686;51.716;7.016;2023-03-23T15:24:42;9.10;;;3.45;;
71836;SDS011;59686;51.716;7.016;2023-03-23T15:29:54;4.93;;;3.20;;
71836;SDS011;59686;51.716;7.016;2023-03-23T15:32:26;4.57;;;3.45;;
71836;SDS011;59686;51.716;7.016;2023-03-23T15:34:55;6.57;;;3.78;;
71836;SDS011;59686;51.716;7.016;2023-03-23T15:37:26;5.60;;;3.90;;
71836;SDS011;59686;51.716;7.016;2023-03-23T15:39:55;4.75;;;3.95;;
71836;SDS011;59686;51.716;7.016;2023-03-23T15:42:25;7.43;;;3.88;;
71836;SDS011;59686;51.716;7.016;2023-03-23T15:53:00;4.93;;;3.75;;
71836;SDS011;59686;51.716;7.016;2023-03-23T15:55:40;4.82;;;3.67;;
71836;SDS011;59686;51.716;7.016;2023-03-23T15:58:10;5.40;;;3.47;;
71836;SDS011;59686;51.716;7.016;2023-03-23T16:00:37;5.18;;;3.75;;
71836;SDS011;59686;51.716;7.016;2023-03-23T16:03:05;6.57;;;3.53;;
71836;SDS011;59686;51.716;7.016;2023-03-23T16:05:33;7.07;;;3.55;;
71836;SDS011;59686;51.716;7.016;2023-03-23T16:07:59;6.10;;;3.40;;
71836;SDS011;59686;51.716;7.016;2023-03-23T16:10:26;4.97;;;2.92;;
71836;SDS011;59686;51.716;7.016;2023-03-23T16:12:53;5.70;;;2.38;;
71836;SDS011;59686;51.716;7.016;2023-03-23T16:15:19;4.10;;;2.80;;
71836;SDS011;59686;51.716;7.016;2023-03-23T16:17:45;7.03;;;2.60;;
71836;SDS011;59686;51.716;7.016;2023-03-23T16:20:12;5.20;;;2.75;;
71836;SDS011;59686;51.716;7.016;2023-03-23T16:22:43;6.05;;;2.20;;
71836;SDS011;59686;51.716;7.016;2023-03-23T16:25:10;3.67;;;2.38;;
71836;SDS011;59686;51.716;7.016;2023-03-23T16:27:37;4.97;;;2.65;;
71836;SDS011;59686;51.716;7.016;2023-03-23T16:30:12;3.72;;;1.95;;
71836;SDS011;59686;51.716;7.016;2023-03-23T16:32:40;4.80;;;2.45;;
71836;SDS011;59686;51.716;7.016;2023-03-23T16:35:07;3.35;;;1.95;;
71836;SDS011;59686;51.716;7.016;2023-03-23T16:37:33;3.63;;;1.98;;
71836;SDS011;59686;51.716;7.016;2023-03-23T16:40:00;5.10;;;2.10;;
71836;SDS011;59686;51.716;7.016;2023-03-23T16:42:27;5.63;;;2.10;;
71836;SDS011;59686;51.716;7.016;2023-03-23T16:44:52;6.28;;;2.05;;
71836;SDS011;59686;51.716;7.016;2023-03-23T16:47:18;4.22;;;1.98;;
71836;SDS011;59686;51.716;7.016;2023-03-23T16:49:47;3.15;;;1.80;;
71836;SDS011;59686;51.716;7.016;2023-03-23T16:52:13;4.88;;;2.08;;
71836;SDS011;59686;51.716;7.016;2023-03-23T16:54:39;2.63;;;1.80;;
71836;SDS011;59686;51.716;7.016;2023-03-23T16:57:05;2.65;;;1.80;;
71836;SDS011;59686;51.716;7.016;2023-03-23T16:59:31;5.60;;;2.10;;
71836;SDS011;59686;51.716;7.016;2023-03-23T17:01:57;8.15;;;2.60;;
71836;SDS011;59686;51.716;7.016;2023-03-23T17:04:27;3.55;;;2.10;;
71836;SDS011;59686;51.716;7.016;2023-03-23T17:06:54;4.88;;;2.20;;
71836;SDS011;59686;51.716;7.016;2023-03-23T17:09:25;5.68;;;2.35;;
71836;SDS011;59686;51.716;7.016;2023-03-23T17:11:51;3.78;;;2.38;;
71836;SDS011;59686;51.716;7.016;2023-03-23T17:14:17;3.25;;;2.03;;
71836;SDS011;59686;51.716;7.016;2023-03-23T17:16:44;6.22;;;2.70;;
71836;SDS011;59686;51.716;7.016;2023-03-23T17:19:13;4.07;;;2.47;;
71836;SDS011;59686;51.716;7.016;2023-03-23T17:21:39;4.70;;;2.60;;
71836;SDS011;59686;51.716;7.016;2023-03-23T17:24:05;5.22;;;2.50;;
71836;SDS011;59686;51.716;7.016;2023-03-23T17:26:32;4.57;;;2.53;;